Terminal Aerodrome Forecast
Issued by NWS

Home | Current Version | Previous Version | Text Only | Print | Product List | Glossary On
Versions: 1 2 3 4 5 6 7 8 9 10 11 12 13 14 15 16 17
000
FTUS42 KJAX 161740
TAFVQQ
TAF
KVQQ 161740Z 1618/1718 04005KT P6SM FEW120 SCT250
     FM162300 00000KT P6SM SCT100 BKN250
     FM171500 12005KT P6SM FEW030 BKN150=

USA.gov is the U.S. government's official web portal to all federal, state and local government web resources and services.